»·PEaware :: N2442P KUKI-KEKA

N2442P :: KUKI-KEKA

FLIGHT INFORMATION

Flight Status: Arrived
Operator: Privately registered:
United States
More flights under this callsign
Pilot: Ken Q. (14290)
Aircraft: CESSNA 210 CENTURION
(C210)
More flights by this aircraft type
Origin: KUKI Ukiah Mun
United States
Destination: KEKA Murray
United States
More flights between these airports :: More routes between these airports
Route: KUKI FOT KEKA
File this flight plan on PilotEdge
Remarks: X
Altitude:
(Current/Filed)
8,500ft
Speed:
(Current/Filed)
175kts
Departed: 05-May-19 12:54 PM
Arrived: 05-May-19 01:49 PM
Distance/Time
Traveled:
109nm/0:55
Distance/Time
To Go:
Arrived

Flight Plot

Page will automatically refresh every two minutes.

Flight plan parsing failed; only flown route is shown


Map Options




Map Legend


Flown Route
Filed Route
Departure Airport
Arrival Airport
Navaid (VOR, NDB)
Fix

Horizontal Profiles

Position Reports

Time Latitude Longitude Heading Altitude Ground
Speed
05-May-19 12:33 39.129108 -123.203011 2 617ft 0kts
05-May-19 12:34 39.129108 -123.203011 2 617ft 0kts
05-May-19 12:35 39.129108 -123.203011 2 617ft 0kts
05-May-19 12:36 39.129108 -123.203011 2 617ft 0kts
05-May-19 12:37 39.129108 -123.203011 2 617ft 0kts
05-May-19 12:38 39.129108 -123.203011 2 617ft 0kts
05-May-19 12:39 39.129108 -123.203011 2 617ft 0kts
05-May-19 12:40 39.129108 -123.203011 2 617ft 0kts
05-May-19 12:41 39.129108 -123.203011 2 617ft 0kts
05-May-19 12:42 39.129108 -123.203011 2 617ft 0kts
05-May-19 12:43 39.129108 -123.203011 2 617ft 0kts
05-May-19 12:44 39.129108 -123.203011 2 617ft 0kts
05-May-19 12:45 39.129109 -123.203011 2 617ft 0kts
05-May-19 12:46 39.129110 -123.203011 2 617ft 0kts
05-May-19 12:47 39.129110 -123.203011 2 617ft 0kts
05-May-19 12:48 39.129113 -123.203011 2 617ft 0kts
05-May-19 12:49 39.131738 -123.203443 348 617ft 15kts
05-May-19 12:50 39.133124 -123.203525 74 617ft 0kts
05-May-19 12:51 39.133126 -123.203519 73 617ft 0kts
05-May-19 12:52 39.133127 -123.203515 73 617ft 0kts
05-May-19 12:53 39.124237 -123.200459 173 798ft 85kts
05-May-19 12:54 39.109133 -123.176700 31 1666ft 147kts
05-May-19 12:55 39.147283 -123.194023 330 2316ft 146kts
05-May-19 12:56 39.176263 -123.226797 296 2935ft 136kts
05-May-19 12:57 39.191728 -123.269900 287 3714ft 129kts
05-May-19 12:58 39.196479 -123.314982 271 4377ft 130kts
05-May-19 12:59 39.207256 -123.359485 315 4896ft 138kts
05-May-19 13:00 39.241121 -123.384080 330 5417ft 141kts
05-May-19 13:01 39.276495 -123.407743 330 5910ft 144kts
05-May-19 13:02 39.312055 -123.431606 330 6415ft 148kts
05-May-19 13:03 39.349298 -123.456887 330 6915ft 154kts
05-May-19 13:04 39.388035 -123.483545 330 7424ft 161kts
05-May-19 13:05 39.428044 -123.511375 330 7926ft 162kts
05-May-19 13:06 39.467157 -123.538650 333 8417ft 158kts
05-May-19 13:07 39.508553 -123.563765 334 8556ft 173kts
05-May-19 13:08 39.553280 -123.589499 336 8555ft 177kts
05-May-19 13:09 39.598727 -123.614843 336 8558ft 177kts
05-May-19 13:10 39.643863 -123.640110 336 8562ft 175kts
05-May-19 13:11 39.688648 -123.665333 336 8567ft 176kts
05-May-19 13:12 39.733473 -123.690686 336 8572ft 176kts
05-May-19 13:13 39.778387 -123.716202 336 8581ft 177kts
05-May-19 13:14 39.822992 -123.744639 333 8589ft 178kts
05-May-19 13:15 39.867575 -123.773669 333 8584ft 178kts
05-May-19 13:16 39.911741 -123.802468 333 8590ft 177kts
05-May-19 13:17 39.955916 -123.831391 334 8595ft 178kts
05-May-19 13:18 40.000276 -123.860531 333 8592ft 178kts
05-May-19 13:19 40.044474 -123.889592 333 8596ft 178kts
05-May-19 13:20 40.089167 -123.917051 336 8606ft 178kts
05-May-19 13:21 40.134643 -123.943418 336 8420ft 178kts
05-May-19 13:22 40.180386 -123.969700 336 7916ft 179kts
05-May-19 13:23 40.225940 -123.995548 336 7417ft 177kts
05-May-19 13:24 40.241700 -124.004411 337 7250ft 174kts
05-May-19 13:25 40.284179 -124.029035 336 6747ft 164kts
05-May-19 13:26 40.324702 -124.052333 338 6164ft 154kts
05-May-19 13:27 40.364036 -124.073140 338 5560ft 150kts
05-May-19 13:29 40.403441 -124.093655 339 4962ft 152kts
05-May-19 13:30 40.439221 -124.111965 339 4411ft 149kts
05-May-19 13:31 40.475879 -124.130756 339 3797ft 137kts
05-May-19 13:32 40.511246 -124.148788 338 3194ft 136kts
05-May-19 13:33 40.546450 -124.166224 338 2606ft 134kts
05-May-19 13:34 40.581780 -124.182705 338 2005ft 132kts
05-May-19 13:35 40.612720 -124.196256 338 1455ft 124kts
05-May-19 13:36 40.642249 -124.215802 329 1057ft 110kts
05-May-19 13:37 40.669806 -124.220331 356 1063ft 96kts
05-May-19 13:38 40.698636 -124.217117 0 985ft 119kts
05-May-19 13:39 40.733444 -124.210821 14 973ft 134kts
05-May-19 13:40 40.724781 -124.194110 261 1152ft 102kts
05-May-19 13:41 40.744221 -124.183748 92 1092ft 138kts
05-May-19 13:42 40.760316 -124.144882 25 1038ft 129kts
05-May-19 13:43 40.791449 -124.129915 6 970ft 106kts
05-May-19 13:44 40.819372 -124.125851 350 885ft 99kts
05-May-19 13:45 40.818787 -124.102750 136 880ft 79kts
05-May-19 13:46 40.803705 -124.088662 211 524ft 60kts
05-May-19 13:47 40.787276 -124.096942 205 453ft 61kts
05-May-19 13:48 40.798031 -124.105462 317 465ft 83kts
05-May-19 13:49 40.807993 -124.119089 152 5ft 0kts
05-May-19 13:50 40.804940 -124.103531 314 150ft 90kts
05-May-19 13:50 40.803017 -124.113032 302 10ft 7kts
05-May-19 13:52 40.804571 -124.116003 311 10ft 4kts
05-May-19 13:53 40.805184 -124.117476 140 10ft 1kts
05-May-19 13:53 40.805221 -124.117516 140 10ft 0kts
05-May-19 13:55 40.805221 -124.117516 140 10ft 0kts
05-May-19 13:55 40.805221 -124.117516 140 10ft 0kts
05-May-19 13:56 40.805221 -124.117516 140 10ft 0kts

Navigation Log

Ident Type
Flight plan parsing failed, navigation log unavailable